Time;durP1;ratioP1;P1;durP2;ratioP2;P2;SDS_P1;SDS_P2;PMS_P1;PMS_P2;Temp;Humidity;BMP_temperature;BMP_pressure;BME280_temperature;BME280_humidity;BME280_pressure;Samples;Min_cycle;Max_cycle;Signal;HPM_P1;HPM_P2
2022/09/30 00:00:32;;;;;;;;;;;10.80;99.90;;;;;;5013327;28;20266;-69
2022/09/30 00:02:57;;;;;;;;;;;10.70;99.90;;;;;;5013486;28;20019;-69
2022/09/30 00:05:23;;;;;;;;;;;10.80;99.90;;;;;;4999788;28;19971;-69
2022/09/30 00:07:49;;;;;;;;;;;10.80;99.90;;;;;;5013098;28;19913;-69
2022/09/30 00:10:16;;;;;;;;;;;10.60;99.90;;;;;;5013347;28;20325;-69
2022/09/30 00:12:41;;;;;;;;;;;10.80;99.90;;;;;;5013406;28;20369;-69
2022/09/30 00:15:07;;;;;;;;;;;10.50;99.90;;;;;;5013193;28;19909;-69
2022/09/30 00:17:33;;;;;;;;;;;10.00;99.90;;;;;;5013466;28;19906;-69
2022/09/30 00:19:58;;;;;;;;;;;10.10;99.90;;;;;;5013220;28;19916;-67
2022/09/30 00:22:24;;;;;;;;;;;9.90;99.90;;;;;;5013097;28;20016;-69
2022/09/30 00:24:50;;;;;;;;;;;10.10;99.90;;;;;;5013243;28;19933;-69
2022/09/30 00:27:17;;;;;;;;;;;10.30;99.90;;;;;;5013150;28;20243;-69
2022/09/30 00:29:43;;;;;;;;;;;9.60;99.90;;;;;;5013110;28;19929;-69
2022/09/30 00:32:08;;;;;;;;;;;9.10;99.90;;;;;;5013484;28;20354;-69
2022/09/30 00:34:34;;;;;;;;;;;9.00;99.90;;;;;;5012708;28;20028;-69
2022/09/30 00:37:01;;;;;;;;;;;9.00;99.90;;;;;;5013524;28;20380;-69
2022/09/30 00:39:28;;;;;;;;;;;9.40;99.90;;;;;;5013013;28;19925;-65
2022/09/30 00:42:01;;;;;;;;;;;9.80;99.90;;;;;;5013348;28;19909;-69
2022/09/30 00:44:57;;;;;;;;;;;9.70;99.90;;;;;;5012955;28;19926;-69
2022/09/30 00:47:32;;;;;;;;;;;9.80;99.90;;;;;;4999639;28;19959;-69
2022/09/30 00:50:08;;;;;;;;;;;9.60;99.90;;;;;;5011723;28;19931;-69
2022/09/30 00:52:34;;;;;;;;;;;9.40;99.90;;;;;;5021415;28;19909;-69
2022/09/30 00:55:02;;;;;;;;;;;9.70;99.90;;;;;;5006702;28;19909;-69
2022/09/30 00:57:28;;;;;;;;;;;9.80;99.90;;;;;;5015727;28;20380;-69
2022/09/30 00:59:53;;;;;;;;;;;10.00;99.90;;;;;;5016314;28;19909;-69
2022/09/30 01:02:19;;;;;;;;;;;10.00;99.90;;;;;;5016698;28;19913;-69
2022/09/30 01:04:45;;;;;;;;;;;9.90;99.90;;;;;;5015287;28;19909;-69
2022/09/30 01:07:11;;;;;;;;;;;10.20;99.90;;;;;;5015933;28;19916;-69
2022/09/30 01:09:39;;;;;;;;;;;10.10;99.90;;;;;;5016348;28;19913;-69
2022/09/30 01:12:08;;;;;;;;;;;10.10;99.90;;;;;;5016508;28;19909;-69
2022/09/30 01:14:34;;;;;;;;;;;10.10;99.90;;;;;;5016359;28;19964;-69
2022/09/30 01:17:05;;;;;;;;;;;10.20;99.90;;;;;;5016136;28;19997;-70
2022/09/30 01:19:50;;;;;;;;;;;10.30;99.90;;;;;;5015946;28;19909;-69
2022/09/30 01:22:19;;;;;;;;;;;10.30;99.90;;;;;;5016295;28;19909;-69
2022/09/30 01:24:57;;;;;;;;;;;10.20;99.90;;;;;;5016093;28;19909;-69
2022/09/30 01:27:32;;;;;;;;;;;10.00;99.90;;;;;;5015967;28;19917;-69
2022/09/30 01:30:03;;;;;;;;;;;9.90;99.90;;;;;;5015853;28;19917;-69
2022/09/30 01:32:53;;;;;;;;;;;9.70;99.90;;;;;;5016136;28;20395;-69
2022/09/30 01:35:28;;;;;;;;;;;9.60;99.90;;;;;;5014436;28;19955;-69
2022/09/30 01:37:54;;;;;;;;;;;9.40;99.90;;;;;;5015755;28;19913;-69
2022/09/30 01:40:31;;;;;;;;;;;9.10;99.90;;;;;;5015804;28;20369;-69
2022/09/30 01:43:03;;;;;;;;;;;8.90;99.90;;;;;;5015850;28;19909;-69
2022/09/30 01:45:47;;;;;;;;;;;9.00;99.90;;;;;;5015787;28;19916;-69
2022/09/30 01:48:13;;;;;;;;;;;9.10;99.90;;;;;;5002238;28;20418;-69
2022/09/30 01:50:48;;;;;;;;;;;9.10;99.90;;;;;;5015318;28;19964;-69
2022/09/30 01:53:32;;;;;;;;;;;9.20;99.90;;;;;;5015736;28;20043;-69
2022/09/30 01:56:03;;;;;;;;;;;9.30;99.90;;;;;;5015371;28;19909;-66
2022/09/30 01:58:31;;;;;;;;;;;9.40;99.90;;;;;;5015502;28;19914;-69
2022/09/30 02:00:59;;;;;;;;;;;9.50;99.90;;;;;;5015362;28;19913;-69
2022/09/30 02:03:52;;;;;;;;;;;9.40;99.90;;;;;;5015074;28;19932;-69
2022/09/30 02:06:19;;;;;;;;;;;9.00;99.90;;;;;;5012265;28;20373;-64
2022/09/30 02:09:05;;;;;;;;;;;8.80;99.90;;;;;;5014552;28;19917;-69
2022/09/30 02:11:35;;;;;;;;;;;8.80;99.90;;;;;;5015131;28;20439;-69
2022/09/30 02:14:00;;;;;;;;;;;8.70;99.90;;;;;;5013987;28;19909;-70
2022/09/30 02:16:47;;;;;;;;;;;8.70;99.90;;;;;;5015164;28;19932;-69
2022/09/30 02:19:25;;;;;;;;;;;9.10;99.90;;;;;;5013331;28;20427;-70
2022/09/30 02:22:05;;;;;;;;;;;9.10;99.90;;;;;;5014883;28;19932;-69
2022/09/30 02:24:35;;;;;;;;;;;9.20;99.90;;;;;;5015035;28;19984;-69
2022/09/30 02:27:02;;;;;;;;;;;9.30;99.90;;;;;;5013460;28;19917;-69
2022/09/30 02:29:29;;;;;;;;;;;9.40;99.90;;;;;;5014837;28;19918;-69
2022/09/30 02:31:59;;;;;;;;;;;9.60;99.90;;;;;;5014553;28;19935;-69
2022/09/30 02:34:31;;;;;;;;;;;9.50;99.90;;;;;;5013953;28;19916;-69
2022/09/30 02:37:04;;;;;;;;;;;8.70;99.90;;;;;;5014531;28;19977;-69
2022/09/30 02:39:33;;;;;;;;;;;9.00;99.90;;;;;;5013809;28;19999;-69
2022/09/30 02:42:01;;;;;;;;;;;9.00;99.90;;;;;;5014623;28;19909;-69
2022/09/30 02:44:27;;;;;;;;;;;9.00;99.90;;;;;;5014821;28;19916;-69
2022/09/30 02:46:55;;;;;;;;;;;8.80;99.90;;;;;;5014257;28;20297;-69
2022/09/30 02:49:33;;;;;;;;;;;9.00;99.90;;;;;;5014333;28;19960;-69
2022/09/30 02:52:02;;;;;;;;;;;9.10;99.90;;;;;;5014459;28;20281;-69
2022/09/30 02:54:47;;;;;;;;;;;9.10;99.90;;;;;;5014422;28;20373;-69
2022/09/30 02:57:18;;;;;;;;;;;8.60;99.90;;;;;;5014574;28;20309;-71
2022/09/30 02:59:45;;;;;;;;;;;8.30;99.90;;;;;;5014331;28;19910;-71
2022/09/30 03:02:11;;;;;;;;;;;8.30;99.90;;;;;;5014020;28;19920;-71
2022/09/30 03:04:38;;;;;;;;;;;8.30;99.90;;;;;;5014235;28;19909;-71
2022/09/30 03:07:04;;;;;;;;;;;8.60;99.90;;;;;;5014111;28;19932;-71
2022/09/30 03:09:30;;;;;;;;;;;8.80;99.90;;;;;;5014361;28;20346;-71
2022/09/30 03:12:04;;;;;;;;;;;8.90;99.90;;;;;;5014017;28;20326;-71
2022/09/30 03:14:52;;;;;;;;;;;8.90;99.90;;;;;;5014327;28;19948;-71
2022/09/30 03:17:18;;;;;;;;;;;8.60;99.90;;;;;;5013470;28;19919;-71
2022/09/30 03:19:47;;;;;;;;;;;8.60;99.90;;;;;;5014244;28;20007;-70
2022/09/30 03:22:18;;;;;;;;;;;8.50;99.90;;;;;;5013946;28;19968;-71
2022/09/30 03:24:44;;;;;;;;;;;8.60;99.90;;;;;;5014200;28;19916;-72
2022/09/30 03:27:31;;;;;;;;;;;8.80;99.90;;;;;;5013658;28;19909;-71
2022/09/30 03:30:01;;;;;;;;;;;9.10;99.90;;;;;;5013684;28;19917;-69
2022/09/30 03:32:29;;;;;;;;;;;9.20;99.90;;;;;;5013711;28;20262;-71
2022/09/30 03:35:13;;;;;;;;;;;9.00;99.90;;;;;;5013934;28;19955;-71
2022/09/30 03:37:45;;;;;;;;;;;8.90;99.90;;;;;;5000194;28;19945;-71
2022/09/30 03:40:16;;;;;;;;;;;9.00;99.90;;;;;;5013966;28;19910;-71
2022/09/30 03:43:20;;;;;;;;;;;9.00;99.90;;;;;;5013506;28;19968;-71
2022/09/30 03:45:57;;;;;;;;;;;8.90;99.90;;;;;;4952825;29;19910;-71
2022/09/30 03:48:24;;;;;;;;;;;8.50;99.90;;;;;;4953241;29;20376;-71
2022/09/30 03:50:51;;;;;;;;;;;8.50;99.90;;;;;;4986284;28;19916;-71
2022/09/30 03:53:16;;;;;;;;;;;8.30;99.90;;;;;;5013241;28;20001;-71
2022/09/30 03:55:46;;;;;;;;;;;8.40;99.90;;;;;;5013641;28;20000;-69
2022/09/30 03:58:13;;;;;;;;;;;8.50;99.90;;;;;;5013441;28;19956;-69
2022/09/30 04:00:43;;;;;;;;;;;8.70;99.90;;;;;;5013247;28;19967;-71
2022/09/30 04:03:08;;;;;;;;;;;8.80;99.90;;;;;;5013258;28;19956;-69
2022/09/30 04:05:34;;;;;;;;;;;8.60;99.90;;;;;;5013572;28;19952;-69
2022/09/30 04:08:00;;;;;;;;;;;8.70;99.90;;;;;;5013279;28;19975;-69
2022/09/30 04:10:25;;;;;;;;;;;9.00;99.90;;;;;;5013440;28;20004;-69
2022/09/30 04:12:52;;;;;;;;;;;9.10;99.90;;;;;;5013620;28;19955;-69
2022/09/30 04:15:17;;;;;;;;;;;8.80;99.90;;;;;;5012779;28;20393;-69
2022/09/30 04:17:43;;;;;;;;;;;8.60;99.90;;;;;;5013583;28;19909;-71
2022/09/30 04:20:09;;;;;;;;;;;8.70;99.90;;;;;;5013245;28;19912;-70
2022/09/30 04:22:34;;;;;;;;;;;8.80;99.90;;;;;;5013400;28;19910;-69
2022/09/30 04:25:00;;;;;;;;;;;8.90;99.90;;;;;;5013087;28;19941;-68
2022/09/30 04:27:26;;;;;;;;;;;8.90;99.90;;;;;;5013439;28;19966;-68
2022/09/30 04:29:51;;;;;;;;;;;8.80;99.90;;;;;;5012897;28;19933;-71
2022/09/30 04:32:17;;;;;;;;;;;8.70;99.90;;;;;;5016124;28;19919;-71
2022/09/30 04:34:43;;;;;;;;;;;8.60;99.90;;;;;;5015609;28;19905;-68
2022/09/30 04:37:09;;;;;;;;;;;8.60;99.90;;;;;;5016826;28;19914;-69
2022/09/30 04:39:35;;;;;;;;;;;8.50;99.90;;;;;;5016989;28;20007;-71
2022/09/30 04:42:01;;;;;;;;;;;8.50;99.90;;;;;;5017092;28;20334;-71
2022/09/30 04:44:26;;;;;;;;;;;8.70;99.90;;;;;;5016504;28;19905;-71
2022/09/30 04:46:53;;;;;;;;;;;8.60;99.90;;;;;;5016979;28;19913;-71
2022/09/30 04:49:18;;;;;;;;;;;8.60;99.90;;;;;;5016637;28;19922;-71
2022/09/30 04:51:44;;;;;;;;;;;8.40;99.90;;;;;;5017140;28;19960;-71
2022/09/30 04:54:10;;;;;;;;;;;8.40;99.90;;;;;;5016483;28;19953;-71
2022/09/30 04:56:36;;;;;;;;;;;8.40;99.90;;;;;;5016801;28;19916;-71
2022/09/30 04:59:02;;;;;;;;;;;8.20;99.90;;;;;;5015017;28;20281;-69
2022/09/30 05:01:27;;;;;;;;;;;8.30;99.90;;;;;;5016552;28;20325;-71
2022/09/30 05:03:53;;;;;;;;;;;8.20;99.90;;;;;;5016634;28;20270;-68
2022/09/30 05:06:19;;;;;;;;;;;8.30;99.90;;;;;;5016209;28;19909;-70
2022/09/30 05:08:45;;;;;;;;;;;8.40;99.90;;;;;;5016641;28;19918;-69
2022/09/30 05:11:13;;;;;;;;;;;8.60;99.90;;;;;;5016354;28;19909;-71
2022/09/30 05:13:39;;;;;;;;;;;8.50;99.90;;;;;;5015905;28;19914;-69
2022/09/30 05:16:06;;;;;;;;;;;8.50;99.90;;;;;;5016273;28;19906;-69
2022/09/30 05:18:33;;;;;;;;;;;8.40;99.90;;;;;;5016368;28;19925;-68
2022/09/30 05:20:59;;;;;;;;;;;8.50;99.90;;;;;;5016289;28;20410;-69
2022/09/30 05:23:25;;;;;;;;;;;8.80;99.90;;;;;;5015894;28;20004;-68
2022/09/30 05:25:51;;;;;;;;;;;8.70;99.90;;;;;;5016145;28;19931;-69
2022/09/30 05:28:17;;;;;;;;;;;8.50;99.90;;;;;;5015913;28;19917;-71
2022/09/30 05:30:44;;;;;;;;;;;8.20;99.90;;;;;;5015784;28;19913;-71
2022/09/30 05:33:10;;;;;;;;;;;8.20;99.90;;;;;;5016030;28;20285;-69
2022/09/30 05:35:37;;;;;;;;;;;8.10;99.90;;;;;;5015622;28;19909;-69
2022/09/30 05:38:03;;;;;;;;;;;8.20;99.90;;;;;;5006629;28;19909;-68
2022/09/30 05:40:29;;;;;;;;;;;8.30;99.90;;;;;;5013212;28;19908;-68
2022/09/30 05:42:56;;;;;;;;;;;8.30;99.90;;;;;;5015074;28;19911;-68
2022/09/30 05:45:22;;;;;;;;;;;8.50;99.90;;;;;;5019079;28;20035;-68
2022/09/30 05:47:54;;;;;;;;;;;8.50;99.90;;;;;;5015173;28;20347;-68
2022/09/30 05:50:20;;;;;;;;;;;8.50;99.90;;;;;;5011199;28;19913;-69
2022/09/30 05:52:46;;;;;;;;;;;8.50;99.90;;;;;;5011723;28;19909;-68
2022/09/30 05:55:12;;;;;;;;;;;8.50;99.90;;;;;;5014587;28;19905;-68
2022/09/30 05:57:38;;;;;;;;;;;8.40;99.90;;;;;;5017794;28;20063;-69
2022/09/30 06:00:05;;;;;;;;;;;8.70;99.90;;;;;;5030177;28;20007;-69
2022/09/30 06:02:37;;;;;;;;;;;8.90;99.90;;;;;;5029043;28;20301;-69
2022/09/30 06:05:03;;;;;;;;;;;8.80;99.90;;;;;;5022917;28;19909;-68
2022/09/30 06:07:29;;;;;;;;;;;8.80;99.90;;;;;;5017529;28;19905;-68
2022/09/30 06:09:55;;;;;;;;;;;9.00;99.90;;;;;;5014467;28;19964;-68
2022/09/30 06:12:20;;;;;;;;;;;8.80;99.90;;;;;;5029472;28;19998;-68
2022/09/30 06:14:46;;;;;;;;;;;8.90;99.90;;;;;;5028182;28;19911;-69
2022/09/30 06:17:11;;;;;;;;;;;8.90;99.90;;;;;;5019413;28;19936;-68
2022/09/30 06:19:37;;;;;;;;;;;9.30;99.90;;;;;;5012451;28;19941;-68
2022/09/30 06:22:03;;;;;;;;;;;9.40;99.90;;;;;;5015605;28;19909;-68
2022/09/30 06:24:29;;;;;;;;;;;9.30;99.90;;;;;;5019404;28;19917;-69
2022/09/30 06:26:55;;;;;;;;;;;9.20;99.90;;;;;;5014104;28;20289;-69
2022/09/30 06:29:21;;;;;;;;;;;9.30;99.90;;;;;;5018031;28;19917;-69
2022/09/30 06:31:47;;;;;;;;;;;9.30;99.90;;;;;;5016002;28;20304;-69
2022/09/30 06:34:12;;;;;;;;;;;9.20;99.90;;;;;;5023732;28;19959;-67
2022/09/30 06:36:38;;;;;;;;;;;9.30;99.90;;;;;;5013267;28;19913;-67
2022/09/30 06:39:04;;;;;;;;;;;9.20;99.90;;;;;;5015553;28;19909;-67
2022/09/30 06:41:29;;;;;;;;;;;9.10;99.90;;;;;;5014921;28;19921;-65
2022/09/30 06:43:55;;;;;;;;;;;9.20;99.90;;;;;;5015292;28;19905;-68
2022/09/30 06:46:22;;;;;;;;;;;9.30;99.90;;;;;;5026134;28;19917;-67
2022/09/30 06:48:57;;;;;;;;;;;9.50;99.90;;;;;;5022301;28;20070;-65
2022/09/30 06:51:28;;;;;;;;;;;9.80;99.90;;;;;;5022484;28;19909;-67
2022/09/30 06:53:55;;;;;;;;;;;9.60;99.90;;;;;;5015611;28;19920;-69
2022/09/30 06:56:21;;;;;;;;;;;9.60;99.90;;;;;;5006552;28;19912;-68
2022/09/30 06:58:46;;;;;;;;;;;9.70;99.90;;;;;;5015899;28;19996;-68
2022/09/30 07:01:13;;;;;;;;;;;9.60;99.90;;;;;;5013044;28;19992;-66
2022/09/30 07:03:39;;;;;;;;;;;9.60;99.90;;;;;;5006643;28;19924;-68
2022/09/30 07:06:05;;;;;;;;;;;9.60;99.90;;;;;;5008086;28;19906;-68
2022/09/30 07:08:32;;;;;;;;;;;9.60;99.90;;;;;;4999043;28;19917;-67
2022/09/30 07:10:59;;;;;;;;;;;9.70;99.90;;;;;;5006135;28;19924;-68
2022/09/30 07:13:24;;;;;;;;;;;9.90;99.90;;;;;;5008835;28;20358;-69
2022/09/30 07:15:53;;;;;;;;;;;9.90;99.90;;;;;;5003497;28;19957;-69
2022/09/30 07:18:19;;;;;;;;;;;9.70;99.90;;;;;;5008785;28;19913;-68
2022/09/30 07:20:51;;;;;;;;;;;9.90;99.90;;;;;;4997216;28;19910;-68
2022/09/30 07:23:17;;;;;;;;;;;10.00;99.90;;;;;;5012313;28;19995;-69
2022/09/30 07:25:54;;;;;;;;;;;10.30;99.90;;;;;;5007102;28;19993;-72
2022/09/30 07:28:20;;;;;;;;;;;10.40;99.90;;;;;;5005136;28;19923;-72
2022/09/30 07:30:46;;;;;;;;;;;10.30;99.90;;;;;;5014928;28;19913;-71
2022/09/30 07:33:15;;;;;;;;;;;10.40;99.90;;;;;;5018794;28;19910;-72
2022/09/30 07:35:50;;;;;;;;;;;10.40;99.90;;;;;;5015085;28;19917;-73
2022/09/30 07:38:17;;;;;;;;;;;10.50;99.90;;;;;;5014945;28;19909;-73
2022/09/30 07:40:50;;;;;;;;;;;10.70;99.90;;;;;;5018972;28;20362;-71
2022/09/30 07:43:17;;;;;;;;;;;10.90;99.90;;;;;;5013981;28;20362;-66
2022/09/30 07:45:43;;;;;;;;;;;10.90;99.90;;;;;;5017787;28;20004;-64
2022/09/30 07:48:39;;;;;;;;;;;11.00;99.90;;;;;;5015726;28;20013;-66
2022/09/30 07:50:55;;;;;;;;;;;11.30;99.90;;;;;;5017670;28;19961;-69
2022/09/30 07:53:21;;;;;;;;;;;11.30;99.90;;;;;;5013942;28;20344;-70
2022/09/30 07:55:46;;;;;;;;;;;11.40;99.90;;;;;;5013115;28;19991;-69
2022/09/30 07:58:12;;;;;;;;;;;11.30;99.90;;;;;;5018443;28;20289;-73
2022/09/30 08:00:38;;;;;;;;;;;11.40;99.90;;;;;;5010855;28;20336;-70
2022/09/30 08:03:03;;;;;;;;;;;11.30;99.90;;;;;;5011701;28;19909;-69
2022/09/30 08:05:29;;;;;;;;;;;11.40;99.90;;;;;;5010415;28;19910;-68
2022/09/30 08:07:55;;;;;;;;;;;11.60;99.90;;;;;;5011541;28;19921;-71
2022/09/30 08:10:21;;;;;;;;;;;11.70;99.90;;;;;;5010392;28;20004;-71
2022/09/30 08:12:46;;;;;;;;;;;11.90;99.90;;;;;;5013609;28;19906;-72
2022/09/30 08:15:12;;;;;;;;;;;12.20;99.90;;;;;;5012909;28;20285;-72
2022/09/30 08:17:38;;;;;;;;;;;12.50;99.90;;;;;;5012260;28;19917;-71
2022/09/30 08:20:04;;;;;;;;;;;12.80;99.90;;;;;;5013086;28;20004;-72
2022/09/30 08:22:29;;;;;;;;;;;12.70;99.90;;;;;;5013430;28;19905;-70
2022/09/30 08:24:55;;;;;;;;;;;12.60;99.90;;;;;;5013277;28;19910;-70
2022/09/30 08:27:21;;;;;;;;;;;12.70;99.90;;;;;;5011931;28;19905;-70
2022/09/30 08:29:46;;;;;;;;;;;12.80;99.90;;;;;;5008570;28;20503;-70
2022/09/30 08:32:12;;;;;;;;;;;13.00;99.90;;;;;;5023900;28;19909;-70
2022/09/30 08:34:37;;;;;;;;;;;12.90;99.90;;;;;;5022594;28;20388;-70
2022/09/30 08:37:03;;;;;;;;;;;13.00;99.90;;;;;;5019067;28;19916;-70
2022/09/30 08:39:29;;;;;;;;;;;13.20;99.90;;;;;;5013260;28;20269;-70
2022/09/30 08:41:54;;;;;;;;;;;13.20;99.90;;;;;;5025191;28;19931;-70
2022/09/30 08:44:20;;;;;;;;;;;13.30;99.90;;;;;;5022142;28;20008;-70
2022/09/30 08:47:01;;;;;;;;;;;13.40;99.90;;;;;;5023451;28;19955;-70
2022/09/30 08:49:30;;;;;;;;;;;13.60;99.90;;;;;;5013803;28;20267;-70
2022/09/30 08:51:56;;;;;;;;;;;13.70;99.90;;;;;;5011575;28;19916;-69
2022/09/30 08:54:24;;;;;;;;;;;14.00;99.90;;;;;;5023644;28;19909;-69
2022/09/30 08:56:50;;;;;;;;;;;14.10;99.90;;;;;;5024484;28;20270;-68
2022/09/30 08:59:28;;;;;;;;;;;14.00;99.90;;;;;;5020156;28;19917;-68
2022/09/30 09:02:00;;;;;;;;;;;14.20;99.90;;;;;;5010693;28;19967;-68
2022/09/30 09:04:26;;;;;;;;;;;14.20;99.90;;;;;;5017022;28;19915;-68
2022/09/30 09:06:57;;;;;;;;;;;14.00;99.90;;;;;;5016003;28;19913;-68
2022/09/30 09:09:41;;;;;;;;;;;14.00;99.90;;;;;;5028846;28;20443;-67
2022/09/30 09:12:07;;;;;;;;;;;14.10;99.90;;;;;;5018308;28;20376;-67
2022/09/30 09:14:41;;;;;;;;;;;14.30;99.90;;;;;;5025690;28;19905;-67
2022/09/30 09:17:22;;;;;;;;;;;14.60;99.90;;;;;;5019253;28;19916;-67
2022/09/30 09:20:01;;;;;;;;;;;14.70;99.90;;;;;;5019442;28;19913;-67
2022/09/30 09:22:27;;;;;;;;;;;14.80;99.90;;;;;;5022838;28;19920;-67
2022/09/30 09:24:54;;;;;;;;;;;14.90;99.90;;;;;;5019969;28;19906;-68
2022/09/30 09:27:35;;;;;;;;;;;14.70;99.90;;;;;;5019861;28;19913;-66
2022/09/30 09:30:11;;;;;;;;;;;14.80;99.90;;;;;;5018051;28;19917;-67
2022/09/30 09:32:37;;;;;;;;;;;15.20;99.90;;;;;;5018035;28;19913;-67
2022/09/30 09:35:13;;;;;;;;;;;15.20;99.90;;;;;;5025313;28;19909;-67
2022/09/30 09:40:55;;;;;;;;;;;15.20;99.90;;;;;;5019675;28;20357;-67
2022/09/30 09:43:36;;;;;;;;;;;15.30;99.90;;;;;;5010410;28;19917;-67
2022/09/30 09:46:07;;;;;;;;;;;15.80;99.90;;;;;;5019802;28;20012;-67
2022/09/30 09:48:34;;;;;;;;;;;16.20;99.90;;;;;;5014402;28;19917;-68
2022/09/30 09:51:21;;;;;;;;;;;15.80;99.90;;;;;;5013474;28;19916;-67
2022/09/30 09:53:49;;;;;;;;;;;15.70;99.90;;;;;;5015218;28;20336;-67
2022/09/30 09:56:22;;;;;;;;;;;16.10;99.90;;;;;;5013971;28;19905;-67
2022/09/30 09:59:07;;;;;;;;;;;16.00;99.90;;;;;;5014186;28;19909;-67
2022/09/30 10:01:35;;;;;;;;;;;16.00;99.90;;;;;;5012017;28;19924;-67
2022/09/30 10:04:32;;;;;;;;;;;16.20;99.90;;;;;;5018806;28;19915;-67
2022/09/30 10:06:58;;;;;;;;;;;16.30;99.90;;;;;;5004682;28;20329;-67
2022/09/30 10:09:34;;;;;;;;;;;16.30;99.90;;;;;;5022993;28;20357;-67
2022/09/30 10:12:06;;;;;;;;;;;16.20;99.90;;;;;;5023063;28;19941;-67
2022/09/30 10:14:33;;;;;;;;;;;16.50;99.90;;;;;;5020841;28;19909;-68
2022/09/30 10:17:03;;;;;;;;;;;16.50;99.90;;;;;;5012665;28;20008;-68
2022/09/30 10:19:31;;;;;;;;;;;16.70;99.90;;;;;;5016593;28;19917;-68
2022/09/30 10:22:09;;;;;;;;;;;16.50;99.90;;;;;;5013003;28;19909;-68
2022/09/30 10:36:33;;;;;;;8.43;5.32;;;16.50;99.90;;;;;;5130925;27;20448;-76
2022/09/30 10:39:18;;;;;;;11.48;5.28;;;16.80;99.90;;;;;;5118632;27;20061;-76
2022/09/30 10:41:44;;;;;;;11.50;6.32;;;17.20;99.90;;;;;;5116634;28;20035;-76
2022/09/30 10:44:16;;;;;;;14.40;5.60;;;17.30;99.90;;;;;;5130469;28;20048;-75
2022/09/30 10:46:45;;;;;;;8.88;5.13;;;17.30;99.90;;;;;;5125305;27;20122;-76
2022/09/30 10:49:30;;;;;;;9.65;5.57;;;17.00;99.90;;;;;;5121837;28;20418;-75
2022/09/30 10:51:57;;;;;;;7.30;4.85;;;17.60;99.90;;;;;;5130526;27;20042;-76
2022/09/30 10:54:47;;;;;;;10.73;5.18;;;17.40;99.90;;;;;;5130768;27;20033;-75
2022/09/30 10:57:22;;;;;;;10.15;4.70;;;17.90;99.90;;;;;;5105027;28;20028;-76
2022/09/30 10:59:51;;;;;;;10.90;4.55;;;18.50;99.90;;;;;;5129963;27;20032;-75
2022/09/30 11:02:21;;;;;;;13.15;5.00;;;18.30;99.90;;;;;;5130397;27;20023;-76
2022/09/30 11:05:17;;;;;;;9.23;4.63;;;18.20;99.90;;;;;;5116507;27;20126;-76
2022/09/30 11:07:51;;;;;;;7.20;4.03;;;18.40;99.90;;;;;;5108813;28;20148;-76
2022/09/30 11:10:50;;;;;;;11.02;4.93;;;18.50;99.90;;;;;;5130022;28;20031;-76
2022/09/30 11:13:28;;;;;;;8.27;4.30;;;18.50;99.90;;;;;;5129986;27;20036;-76
2022/09/30 11:16:13;;;;;;;10.73;5.28;;;18.80;99.90;;;;;;5103621;28;20043;-76
2022/09/30 11:19:10;;;;;;;9.02;4.45;;;18.70;99.90;;;;;;5130042;28;20031;-76
2022/09/30 11:21:41;;;;;;;5.97;4.10;;;18.30;99.90;;;;;;5130095;27;20035;-76
2022/09/30 11:24:13;;;;;;;6.15;3.10;;;18.20;99.90;;;;;;5128715;27;20035;-76
2022/09/30 11:26:44;;;;;;;8.45;2.80;;;19.10;99.90;;;;;;5130049;28;20031;-76
2022/09/30 11:29:37;;;;;;;3.53;2.33;;;19.70;99.90;;;;;;5129569;27;20520;-76
2022/09/30 11:32:23;;;;;;;4.97;2.33;;;18.20;99.90;;;;;;5130010;27;20023;-75
2022/09/30 11:34:52;;;;;;;8.50;2.97;;;17.60;99.90;;;;;;5106447;28;20416;-75
2022/09/30 11:37:32;;;;;;;11.05;2.60;;;17.90;99.90;;;;;;5116794;27;20032;-75
2022/09/30 11:39:58;;;;;;;5.00;2.35;;;18.80;99.90;;;;;;5097612;28;20452;-75
2022/09/30 11:42:42;;;;;;;4.43;2.30;;;19.30;99.90;;;;;;5114436;28;20035;-76
2022/09/30 11:45:36;;;;;;;5.72;2.95;;;20.20;99.90;;;;;;5116133;28;20039;-76
2022/09/30 11:48:20;;;;;;;5.18;2.00;;;21.40;97.60;;;;;;5116052;28;20474;-75
2022/09/30 11:51:12;;;;;;;4.70;2.60;;;20.60;95.70;;;;;;5115746;28;20126;-76
2022/09/30 11:54:01;;;;;;;4.90;2.10;;;19.90;97.90;;;;;;5082685;28;20039;-75
2022/09/30 11:56:41;;;;;;;4.90;2.53;;;20.60;95.90;;;;;;5112941;28;20081;-75
2022/09/30 11:59:26;;;;;;;7.75;2.20;;;19.90;97.20;;;;;;5114418;28;20051;-76
2022/09/30 12:01:57;;;;;;;6.75;2.47;;;20.00;96.70;;;;;;5115680;28;20039;-75
2022/09/30 12:04:50;;;;;;;5.47;2.75;;;20.50;97.20;;;;;;5115231;28;20549;-76
2022/09/30 12:07:27;;;;;;;5.50;2.95;;;20.00;97.60;;;;;;5110401;28;20031;-75
2022/09/30 12:10:07;;;;;;;5.03;2.95;;;20.60;97.30;;;;;;5115348;28;20484;-76
2022/09/30 12:12:32;;;;;;;8.93;3.47;;;21.10;96.30;;;;;;5113859;28;20039;-76
2022/09/30 12:15:01;;;;;;;7.85;3.47;;;19.70;97.40;;;;;;5115108;28;20027;-76
2022/09/30 12:17:40;;;;;;;7.70;3.75;;;19.00;99.10;;;;;;5113727;28;20434;-76
2022/09/30 12:20:18;;;;;;;9.30;3.40;;;18.80;99.60;;;;;;5114081;28;20102;-75
2022/09/30 12:22:46;;;;;;;6.15;3.75;;;19.40;99.60;;;;;;5115203;28;20051;-75
2022/09/30 12:25:18;;;;;;;5.03;3.67;;;19.80;98.80;;;;;;5115103;28;20039;-75
2022/09/30 12:27:52;;;;;;;6.35;3.92;;;19.90;97.60;;;;;;5115190;28;20020;-75
2022/09/30 12:30:22;;;;;;;10.40;3.30;;;20.70;98.30;;;;;;5114786;28;20088;-73
2022/09/30 12:33:16;;;;;;;4.22;3.00;;;21.30;95.90;;;;;;5114999;28;20106;-76
2022/09/30 12:36:07;;;;;;;8.38;3.05;;;19.70;97.50;;;;;;5113381;28;20050;-75
2022/09/30 12:38:49;;;;;;;3.80;2.70;;;20.60;97.10;;;;;;5104345;28;20362;-76
2022/09/30 12:41:23;;;;;;;7.72;3.60;;;20.20;97.10;;;;;;5112070;28;20030;-75
2022/09/30 12:43:52;;;;;;;9.85;3.75;;;18.80;99.10;;;;;;5114738;28;20545;-75
2022/09/30 12:46:56;;;;;;;6.80;3.50;;;18.60;99.60;;;;;;5114818;28;20023;-75
2022/09/30 12:49:26;;;;;;;4.75;3.25;;;18.70;99.90;;;;;;5112270;28;20039;-75
2022/09/30 12:51:58;;;;;;;9.02;4.25;;;19.40;99.40;;;;;;5114869;28;20012;-75
2022/09/30 12:54:31;;;;;;;9.45;4.60;;;20.30;97.70;;;;;;5112976;28;20038;-76
2022/09/30 12:57:02;;;;;;;6.80;3.28;;;20.70;97.90;;;;;;5114540;28;20059;-75
2022/09/30 12:59:51;;;;;;;4.53;2.93;;;21.40;97.20;;;;;;5114054;28;20103;-76
2022/09/30 13:02:41;;;;;;;5.57;3.10;;;20.30;95.50;;;;;;5096275;28;20039;-75
2022/09/30 13:05:26;;;;;;;9.05;3.50;;;20.10;97.10;;;;;;5114404;28;20088;-76
2022/09/30 13:08:04;;;;;;;6.13;3.85;;;19.20;99.00;;;;;;5114443;28;20096;-76
2022/09/30 13:10:36;;;;;;;13.27;6.57;;;20.00;98.30;;;;;;5088239;28;20043;-75
2022/09/30 13:13:24;;;;;;;7.03;3.58;;;19.50;98.00;;;;;;5114074;28;20426;-78
2022/09/30 13:15:52;;;;;;;7.55;3.33;;;19.40;98.30;;;;;;5102474;28;20032;-76
2022/09/30 13:18:25;;;;;;;9.88;3.70;;;19.30;98.30;;;;;;5108603;28;20026;-76
2022/09/30 13:20:53;;;;;;;12.50;3.30;;;19.10;98.40;;;;;;5114095;28;20111;-75
2022/09/30 13:23:40;;;;;;;4.50;3.35;;;19.50;98.30;;;;;;5113549;28;20024;-76
2022/09/30 13:26:22;;;;;;;15.20;4.00;;;19.50;98.20;;;;;;5114024;28;20041;-75
2022/09/30 13:28:49;;;;;;;8.15;3.92;;;19.30;99.10;;;;;;5113989;28;20024;-75
2022/09/30 13:31:19;;;;;;;8.95;3.50;;;19.40;97.90;;;;;;5113862;28;20049;-75
2022/09/30 13:34:00;;;;;;;6.80;2.97;;;19.50;98.20;;;;;;5113352;28;20499;-75
2022/09/30 13:36:49;;;;;;;4.95;3.05;;;19.90;98.10;;;;;;5113892;28;20040;-75
2022/09/30 13:39:24;;;;;;;6.82;3.00;;;20.10;97.70;;;;;;5081627;28;20487;-75
2022/09/30 13:42:16;;;;;;;8.20;3.83;;;20.40;97.30;;;;;;5113529;28;20118;-76
2022/09/30 13:45:01;;;;;;;7.93;3.40;;;20.80;96.10;;;;;;5102783;28;20051;-75
2022/09/30 13:47:34;;;;;;;4.95;3.30;;;20.50;96.30;;;;;;5113534;28;20020;-72
2022/09/30 13:50:17;;;;;;;6.07;3.05;;;20.50;97.20;;;;;;5086462;28;20104;-75
2022/09/30 13:52:49;;;;;;;7.57;3.35;;;20.40;97.60;;;;;;5111857;28;20040;-75
2022/09/30 13:55:45;;;;;;;6.03;3.33;;;20.60;96.80;;;;;;5113365;28;20476;-75
2022/09/30 13:58:35;;;;;;;6.63;3.60;;;21.10;96.40;;;;;;5111783;28;20046;-76
2022/09/30 14:01:25;;;;;;;4.40;2.90;;;20.80;95.70;;;;;;5113282;28;20039;-75
2022/09/30 14:04:14;;;;;;;7.43;2.80;;;21.50;95.70;;;;;;5063534;28;20024;-76
2022/09/30 14:06:46;;;;;;;7.72;3.33;;;20.40;96.20;;;;;;5111089;28;20038;-76
2022/09/30 14:09:18;;;;;;;;;;;20.30;97.20;;;;;;5113342;28;20087;-75
2022/09/30 14:12:12;;;;;;;5.10;3.28;;;20.30;96.80;;;;;;5113139;28;19943;-76
2022/09/30 14:15:14;;;;;;;9.07;3.75;;;19.30;98.10;;;;;;5110656;28;20047;-75
2022/09/30 14:18:18;;;;;;;6.50;3.83;;;18.80;99.00;;;;;;5092540;28;20035;-75
2022/09/30 14:21:21;;;;;;;7.75;3.78;;;19.00;99.90;;;;;;5039838;28;20037;-75
2022/09/30 14:24:00;;;;;;;6.32;3.67;;;19.50;99.00;;;;;;5112707;28;20023;-75
2022/09/30 14:26:37;;;;;;;7.25;3.55;;;19.80;98.70;;;;;;5113028;28;20506;-76
2022/09/30 14:29:19;;;;;;;7.90;3.65;;;19.50;98.50;;;;;;5111942;28;20075;-75
2022/09/30 14:31:46;;;;;;;4.70;3.42;;;20.00;98.50;;;;;;5093368;28;20027;-76
2022/09/30 14:34:13;;;;;;;6.88;2.60;;;20.90;96.80;;;;;;5093776;28;20028;-76
2022/09/30 14:36:40;;;;;;;6.45;2.90;;;21.10;96.20;;;;;;5111053;28;20034;-76
2022/09/30 14:39:14;;;;;;;5.32;3.20;;;21.20;96.10;;;;;;5097786;28;20036;-78